Startpagina
METAR-TAF:

METAR-TAF

Vliegvelden :

Flughafen Mönchengladbach

Mönchengladbach, Duitsland

breedte: 51-13-49N, lengte: 006-30-16E, hoogte: 38 m

Actueel weer

Dit bericht is 24 minuten geleden gemaakt, om 09:20 UTC
Wind 15 kt uit het zuidzuidwesten
Temperatuur 6°C
Vochtigheid 75%
Druk 1012 hPa
Zicht 10 km of meer
Gebroken wolken op 3200 ft

METAR: EDLN 160920Z 21015KT 9999 BKN032 06/02 Q1012

Tijdstip: 10:44 (09:44 UTC)

Verwachting

Dit bericht is 49 minuten geleden gemaakt, om 08:55 UTC
Verwachting geldig van 16 om 09 UTC tot 16 om 18 UTC
Wind 11 kt uit het zuidwesten
Zicht 10 km of meer
Gebroken wolken op 3000 ft
Tijdelijke
van 16 om 09 UTC tot 16 om 15 UTC
Wind 15 kt uit het zuidwesten met uitschieters tot 25 kt

TAF: EDLN 160855Z 1609/1618 22011KT 9999 BKN030 TEMPO 1609/1615 22015G25KT

Waarnemingen en weersverwachtingen van meer dan 4000 vliegvelden (METAR en TAF).

De beschikbare stations zijn de gele en rode punten op de kaart.

Ga met uw muis naar het station om de naam te zien.

Klik dan om waarnemingen en weersverwachtingen te zien.

kaart wijzigen: klik op de groene knoppen met een zwart kruis om in te zoomen, op de groene knop met een streepje om uit te zoomen of op de groene pijlen voor aangrenzende kaarten.


METAR-TAF: